Time;durP1;ratioP1;P1;durP2;ratioP2;P2;SDS_P1;SDS_P2;PMS_P1;PMS_P2;Temp;Humidity;BMP_temperature;BMP_pressure;BME280_temperature;BME280_humidity;BME280_pressure;Samples;Min_cycle;Max_cycle;Signal;HPM_P1;HPM_P2
2021/11/05 00:00:41;;;;;;;27.80;18.70;;;410.40;2355.20;;;;;;5081838;28;20127;-77
2021/11/05 00:03:07;;;;;;;23.60;16.10;;;410.40;2355.20;;;;;;5086080;28;20020;-77
2021/11/05 00:05:34;;;;;;;29.27;17.13;;;410.30;2355.20;;;;;;5093230;28;20024;-77
2021/11/05 00:08:07;;;;;;;29.45;17.67;;;410.30;2355.20;;;;;;5086141;28;20063;-78
2021/11/05 00:10:36;;;;;;;30.17;17.92;;;410.10;2355.20;;;;;;5107212;28;20101;-77
2021/11/05 00:13:02;;;;;;;35.85;18.77;;;410.10;2355.20;;;;;;5087274;28;20027;-77
2021/11/05 00:15:28;;;;;;;23.98;16.23;;;410.10;2355.20;;;;;;5105624;28;20412;-77
2021/11/05 00:17:54;;;;;;;24.95;16.05;;;410.10;2355.20;;;;;;5086991;28;20114;-78
2021/11/05 00:20:20;;;;;;;35.42;14.65;;;410.00;2355.20;;;;;;5102691;28;20052;-77
2021/11/05 00:22:46;;;;;;;23.38;15.90;;;410.10;2355.20;;;;;;5104716;28;20052;-77
2021/11/05 00:25:11;;;;;;;23.98;16.02;;;410.10;2355.20;;;;;;5086910;28;20044;-77
2021/11/05 00:27:39;;;;;;;20.52;14.77;;;410.10;2355.20;;;;;;5091507;28;20090;-77
2021/11/05 00:30:10;;;;;;;27.88;15.88;;;410.10;2355.20;;;;;;5085444;28;20035;-77
2021/11/05 00:32:37;;;;;;;23.42;15.35;;;410.10;2355.20;;;;;;5075654;28;20024;-77
2021/11/05 00:35:04;;;;;;;24.85;14.68;;;410.20;2355.20;;;;;;5095988;28;20032;-77
2021/11/05 00:37:29;;;;;;;24.55;15.60;;;410.20;2355.20;;;;;;5096293;28;20108;-77
2021/11/05 00:39:55;;;;;;;27.23;16.92;;;410.20;2355.20;;;;;;5108565;28;20530;-77
2021/11/05 00:42:21;;;;;;;30.77;20.40;;;410.20;2355.20;;;;;;5095948;28;20047;-77
2021/11/05 00:44:47;;;;;;;30.48;17.50;;;410.20;2355.20;;;;;;5113861;28;20034;-78
2021/11/05 00:47:15;;;;;;;21.75;13.80;;;410.30;2355.20;;;;;;5106009;28;20058;-77
2021/11/05 00:49:42;;;;;;;23.05;11.52;;;410.30;2355.20;;;;;;5113912;28;20016;-77
2021/11/05 00:52:08;;;;;;;18.00;13.07;;;410.30;2355.20;;;;;;5083893;28;20032;-77
2021/11/05 00:54:34;;;;;;;18.60;12.90;;;410.30;2355.20;;;;;;5108814;28;20057;-77
2021/11/05 00:56:59;;;;;;;22.85;14.38;;;410.30;2355.20;;;;;;5113705;28;20464;-77
2021/11/05 00:59:25;;;;;;;21.30;13.23;;;410.30;2355.20;;;;;;5094758;28;20052;-77
2021/11/05 01:01:52;;;;;;;19.88;12.50;;;410.40;2355.20;;;;;;5095062;28;20097;-76
2021/11/05 01:04:17;;;;;;;14.88;11.00;;;410.40;2355.20;;;;;;5087576;28;20117;-77
2021/11/05 01:06:43;;;;;;;18.27;11.18;;;410.40;2355.20;;;;;;5109870;28;20041;-76
2021/11/05 01:09:09;;;;;;;17.08;10.63;;;410.30;2355.20;;;;;;5095520;28;20069;-77
2021/11/05 01:11:35;;;;;;;15.55;10.57;;;410.30;2355.20;;;;;;5095347;28;20030;-76
2021/11/05 01:14:01;;;;;;;14.30;11.00;;;410.30;2355.20;;;;;;5113239;28;20035;-76
2021/11/05 01:16:27;;;;;;;13.63;11.13;;;410.30;2355.20;;;;;;5094483;28;20047;-76
2021/11/05 01:18:53;;;;;;;14.85;11.60;;;410.30;2355.20;;;;;;5095388;28;20024;-76
2021/11/05 01:21:19;;;;;;;14.65;11.43;;;410.30;2355.20;;;;;;5113012;28;20432;-76
2021/11/05 01:23:45;;;;;;;21.13;14.13;;;410.30;2355.20;;;;;;5095138;28;20028;-76
2021/11/05 01:26:11;;;;;;;19.67;15.93;;;410.30;2355.20;;;;;;5113420;28;20072;-77
2021/11/05 01:28:37;;;;;;;24.48;15.02;;;410.20;2355.20;;;;;;5094185;28;20430;-77
2021/11/05 01:31:04;;;;;;;18.08;14.02;;;410.20;2355.20;;;;;;5109266;28;20034;-76
2021/11/05 01:33:30;;;;;;;20.63;14.00;;;410.30;2355.20;;;;;;5102188;28;20042;-77
2021/11/05 01:35:56;;;;;;;13.75;11.70;;;410.30;2355.20;;;;;;5094000;28;20500;-77
2021/11/05 01:38:21;;;;;;;17.08;11.50;;;410.30;2355.20;;;;;;5094293;28;20035;-77
2021/11/05 01:40:47;;;;;;;20.02;12.18;;;410.30;2355.20;;;;;;5113048;28;20423;-77
2021/11/05 01:43:14;;;;;;;26.60;19.00;;;410.20;2355.20;;;;;;5094031;28;20027;-79
2021/11/05 01:45:41;;;;;;;46.30;27.95;;;410.20;2355.20;;;;;;5106592;28;20504;-77
2021/11/05 01:48:07;;;;;;;50.95;32.72;;;410.30;2355.20;;;;;;5094290;28;20040;-77
2021/11/05 01:50:33;;;;;;;51.03;31.50;;;410.30;2355.20;;;;;;5094869;28;20108;-78
2021/11/05 01:53:00;;;;;;;68.40;41.00;;;410.30;2355.20;;;;;;5112694;28;20027;-77
2021/11/05 01:55:26;;;;;;;69.70;42.05;;;410.30;2355.20;;;;;;5112390;28;20031;-77
2021/11/05 01:57:52;;;;;;;81.57;47.72;;;410.30;2355.20;;;;;;5094680;28;20468;-77
2021/11/05 02:00:22;;;;;;;73.57;46.63;;;410.40;2355.20;;;;;;5094494;28;20019;-76
2021/11/05 02:02:48;;;;;;;78.40;50.70;;;410.40;2355.20;;;;;;5112947;28;20469;-76
2021/11/05 02:05:14;;;;;;;81.07;49.80;;;410.40;2355.20;;;;;;5088653;28;20077;-76
2021/11/05 02:07:45;;;;;;;80.05;47.90;;;410.40;2355.20;;;;;;5091235;28;20526;-76
2021/11/05 02:10:12;;;;;;;90.07;53.45;;;410.40;2355.20;;;;;;5094087;28;20072;-76
2021/11/05 02:12:38;;;;;;;98.05;61.70;;;410.40;2355.20;;;;;;5094689;28;20507;-76
2021/11/05 02:15:06;;;;;;;125.95;73.53;;;410.40;2355.20;;;;;;5103198;28;20032;-76
2021/11/05 02:17:37;;;;;;;94.78;57.60;;;410.30;2355.20;;;;;;5073707;28;20040;-76
2021/11/05 02:20:07;;;;;;;27.42;17.25;;;410.30;2355.20;;;;;;5106843;28;20102;-76
2021/11/05 02:22:33;;;;;;;19.40;12.13;;;410.20;2355.20;;;;;;5080262;28;20081;-77
2021/11/05 02:24:58;;;;;;;26.25;13.23;;;410.10;2355.20;;;;;;5092487;28;20032;-77
2021/11/05 02:27:28;;;;;;;22.40;13.07;;;410.10;2355.20;;;;;;5092081;28;20035;-76
2021/11/05 02:29:53;;;;;;;21.13;13.75;;;410.20;2355.20;;;;;;5112258;28;20035;-76
2021/11/05 02:32:19;;;;;;;28.42;15.70;;;410.30;2355.20;;;;;;5093981;28;20077;-76
2021/11/05 02:34:45;;;;;;;21.90;15.00;;;410.30;2355.20;;;;;;5093888;28;20038;-77
2021/11/05 02:37:11;;;;;;;32.00;16.60;;;410.40;2355.20;;;;;;5112232;28;20031;-77
2021/11/05 02:39:36;;;;;;;23.35;15.80;;;410.30;2355.20;;;;;;5111517;28;20023;-76
2021/11/05 02:42:03;;;;;;;27.27;15.07;;;410.30;2355.20;;;;;;5112593;28;20023;-76
2021/11/05 02:44:29;;;;;;;22.80;13.85;;;410.30;2355.20;;;;;;5104940;28;20110;-76
2021/11/05 02:46:55;;;;;;;22.05;14.35;;;410.30;2355.20;;;;;;5113390;28;20103;-75
2021/11/05 02:49:21;;;;;;;27.05;14.18;;;410.20;2355.20;;;;;;5115469;28;20491;-76
2021/11/05 02:51:49;;;;;;;26.92;16.90;;;410.10;2355.20;;;;;;5097319;28;20040;-75
2021/11/05 02:54:16;;;;;;;28.08;17.13;;;410.10;2355.20;;;;;;5096626;28;20030;-75
2021/11/05 02:56:42;;;;;;;21.75;14.40;;;410.10;2355.20;;;;;;5097421;28;20032;-75
2021/11/05 02:59:08;;;;;;;28.42;15.27;;;410.10;2355.20;;;;;;5115245;28;20387;-75
2021/11/05 03:01:36;;;;;;;23.05;12.80;;;410.10;2355.20;;;;;;5096201;28;20030;-75
2021/11/05 03:04:06;;;;;;;22.33;15.23;;;410.10;2355.20;;;;;;5115738;28;20031;-75
2021/11/05 03:06:37;;;;;;;22.10;13.45;;;410.10;2355.20;;;;;;5115118;28;20483;-75
2021/11/05 03:09:10;;;;;;;18.35;10.93;;;409.90;2355.20;;;;;;5096905;28;20108;-75
2021/11/05 03:11:36;;;;;;;13.90;9.73;;;409.90;2355.20;;;;;;5090487;28;20097;-75
2021/11/05 03:14:03;;;;;;;13.32;9.50;;;409.80;2355.20;;;;;;5097081;28;20118;-75
2021/11/05 03:16:29;;;;;;;13.20;9.52;;;409.70;2355.20;;;;;;5111189;27;20051;-75
2021/11/05 03:18:54;;;;;;;12.00;8.45;;;409.60;2355.20;;;;;;5112065;28;20040;-76
2021/11/05 03:21:20;;;;;;;15.10;8.95;;;409.60;2355.20;;;;;;5114866;28;20107;-76
2021/11/05 03:23:46;;;;;;;10.55;7.18;;;409.60;2355.20;;;;;;5114689;28;20031;-76
2021/11/05 03:26:12;;;;;;;10.02;5.68;;;384.90;2329.60;;;;;;5115254;28;20034;-76
2021/11/05 03:28:37;;;;;;;11.15;4.72;;;384.90;2329.60;;;;;;5115449;28;20050;-76
2021/11/05 03:31:04;;;;;;;7.93;5.90;;;384.90;2329.60;;;;;;5103465;27;20394;-76
2021/11/05 03:33:30;;;;;;;23.52;16.83;;;384.90;2329.60;;;;;;5117417;27;20506;-76
2021/11/05 03:35:55;;;;;;;14.13;8.65;;;384.90;2329.60;;;;;;5117884;27;20027;-76
2021/11/05 03:38:22;;;;;;;8.48;5.85;;;384.80;2329.60;;;;;;5135986;27;20092;-76
2021/11/05 03:40:48;;;;;;;8.48;5.28;;;384.80;2329.60;;;;;;5117757;27;20015;-76
2021/11/05 03:43:14;;;;;;;9.38;5.07;;;384.90;2329.60;;;;;;5122073;27;20099;-76
2021/11/05 03:45:40;;;;;;;10.40;6.97;;;384.80;2329.60;;;;;;5095611;28;20038;-76
2021/11/05 03:48:06;;;;;;;4.63;2.88;;;384.80;2329.60;;;;;;5114850;28;20114;-77
2021/11/05 03:50:31;;;;;;;6.13;2.65;;;384.70;2329.60;;;;;;5114434;28;20118;-77
2021/11/05 03:52:57;;;;;;;4.70;2.55;;;384.70;2329.60;;;;;;5095833;28;20059;-77
2021/11/05 03:55:23;;;;;;;4.53;2.30;;;384.70;2329.60;;;;;;5095510;28;20039;-77
2021/11/05 03:57:49;;;;;;;4.00;1.80;;;384.70;2329.60;;;;;;5095174;28;20081;-77
2021/11/05 04:00:15;;;;;;;4.60;2.15;;;384.70;2329.60;;;;;;5096731;28;20031;-77
2021/11/05 04:02:41;;;;;;;3.85;2.30;;;384.70;2329.60;;;;;;5102178;28;20032;-77
2021/11/05 04:05:07;;;;;;;4.28;1.83;;;384.70;2329.60;;;;;;5118349;27;20430;-77
2021/11/05 04:07:33;;;;;;;6.43;2.03;;;384.70;2329.60;;;;;;5115144;28;20057;-76
2021/11/05 04:09:59;;;;;;;7.47;2.63;;;384.60;2329.60;;;;;;5114714;28;20019;-77
2021/11/05 04:12:25;;;;;;;6.45;3.00;;;384.60;2329.60;;;;;;5095629;28;20036;-77
2021/11/05 04:14:50;;;;;;;6.13;3.00;;;384.60;2329.60;;;;;;5096252;28;20032;-77
2021/11/05 04:17:16;;;;;;;5.88;2.67;;;384.50;2329.60;;;;;;5096083;28;20031;-76
2021/11/05 04:19:43;;;;;;;6.40;2.92;;;384.50;2329.60;;;;;;5096603;28;20024;-76
2021/11/05 04:22:09;;;;;;;7.03;2.90;;;384.40;2329.60;;;;;;5114401;28;20539;-76
2021/11/05 04:24:35;;;;;;;5.35;3.65;;;384.40;2329.60;;;;;;5096462;28;20030;-77
2021/11/05 04:27:01;;;;;;;8.13;3.60;;;384.40;2329.60;;;;;;5114529;28;20434;-76
2021/11/05 04:29:27;;;;;;;4.80;2.70;;;384.40;2329.60;;;;;;5114750;28;20479;-76
2021/11/05 04:31:53;;;;;;;8.57;3.13;;;384.30;2329.60;;;;;;5113632;28;20039;-77
2021/11/05 04:34:19;;;;;;;4.78;2.53;;;384.30;2329.60;;;;;;5096144;28;20035;-76
2021/11/05 04:36:45;;;;;;;4.10;2.70;;;384.30;2329.60;;;;;;5114198;28;20016;-76
2021/11/05 04:39:16;;;;;;;5.80;2.60;;;384.20;2329.60;;;;;;5095615;28;20110;-77
2021/11/05 04:41:42;;;;;;;5.28;2.92;;;384.20;2329.60;;;;;;5096245;28;20081;-76
2021/11/05 04:44:07;;;;;;;5.47;2.97;;;384.20;2329.60;;;;;;5095921;28;20032;-76
2021/11/05 04:46:33;;;;;;;7.20;2.50;;;384.20;2329.60;;;;;;5114331;28;20026;-76
2021/11/05 04:48:59;;;;;;;6.53;2.20;;;384.20;2329.60;;;;;;5114159;28;20088;-77
2021/11/05 04:51:25;;;;;;;6.47;2.60;;;384.30;2329.60;;;;;;5095654;28;20449;-77
2021/11/05 04:53:51;;;;;;;6.07;2.60;;;384.30;2329.60;;;;;;5095282;28;20216;-77
2021/11/05 04:56:17;;;;;;;6.60;3.20;;;384.30;2329.60;;;;;;5114111;28;20380;-77
2021/11/05 04:58:42;;;;;;;9.02;4.57;;;384.30;2329.60;;;;;;5113884;28;20035;-77
2021/11/05 05:01:08;;;;;;;5.78;3.17;;;384.30;2329.60;;;;;;5095586;28;20131;-77
2021/11/05 05:03:34;;;;;;;6.45;2.83;;;384.10;2329.60;;;;;;5087073;28;20520;-78
2021/11/05 05:06:00;;;;;;;6.45;3.13;;;384.10;2329.60;;;;;;5093281;28;20031;-78
2021/11/05 05:08:25;;;;;;;10.23;3.40;;;384.10;2329.60;;;;;;5109363;28;20024;-77
2021/11/05 05:10:51;;;;;;;6.25;3.60;;;384.00;2329.60;;;;;;5111934;28;20106;-78
2021/11/05 05:13:17;;;;;;;7.60;4.03;;;384.00;2329.60;;;;;;5094190;28;20027;-77
2021/11/05 05:15:43;;;;;;;7.53;4.22;;;384.10;2329.60;;;;;;5093845;28;20471;-77
2021/11/05 05:18:09;;;;;;;6.88;3.90;;;384.10;2329.60;;;;;;5113390;28;20093;-77
2021/11/05 05:20:35;;;;;;;9.98;5.13;;;384.10;2329.60;;;;;;5094377;28;20027;-77
2021/11/05 05:23:01;;;;;;;11.98;8.25;;;384.20;2329.60;;;;;;5094537;28;20031;-77
2021/11/05 05:25:27;;;;;;;7.10;4.53;;;384.20;2329.60;;;;;;5112239;28;20034;-77
2021/11/05 05:27:54;;;;;;;5.55;3.60;;;384.20;2329.60;;;;;;5094831;28;20032;-77
2021/11/05 05:30:20;;;;;;;7.85;3.60;;;384.30;2329.60;;;;;;5111264;28;20030;-77
2021/11/05 05:32:49;;;;;;;7.68;3.60;;;384.20;2329.60;;;;;;5092907;28;20024;-77
2021/11/05 05:35:14;;;;;;;8.02;3.53;;;384.20;2329.60;;;;;;5075049;28;20024;-77
2021/11/05 05:37:40;;;;;;;7.15;4.53;;;384.30;2329.60;;;;;;5074535;28;20072;-77
2021/11/05 05:40:07;;;;;;;5.80;3.35;;;384.20;2329.60;;;;;;5074405;28;20036;-76
2021/11/05 05:42:33;;;;;;;5.45;2.88;;;384.20;2329.60;;;;;;5080183;28;20068;-79
2021/11/05 05:44:59;;;;;;;5.32;3.65;;;384.20;2329.60;;;;;;5094972;28;20047;-78
2021/11/05 05:47:25;;;;;;;6.00;3.55;;;384.10;2329.60;;;;;;5112554;28;20488;-77
2021/11/05 05:49:52;;;;;;;6.82;4.47;;;384.20;2329.60;;;;;;5112786;28;20069;-77
2021/11/05 05:52:18;;;;;;;8.43;4.40;;;384.10;2329.60;;;;;;5093569;28;20038;-77
2021/11/05 05:54:44;;;;;;;7.63;4.93;;;384.10;2329.60;;;;;;5094406;28;20122;-78
2021/11/05 05:57:09;;;;;;;12.15;5.70;;;384.10;2329.60;;;;;;5108873;28;20106;-77
2021/11/05 05:59:36;;;;;;;12.40;5.57;;;384.00;2329.60;;;;;;5093667;28;20957;-77
2021/11/05 06:02:02;;;;;;;8.52;5.05;;;384.00;2329.60;;;;;;5102225;28;20384;-76
2021/11/05 06:04:28;;;;;;;10.75;6.68;;;384.00;2329.60;;;;;;5083984;28;20024;-77
2021/11/05 06:06:54;;;;;;;9.25;4.93;;;384.00;2329.60;;;;;;5086190;28;20028;-77
2021/11/05 06:09:20;;;;;;;10.32;5.22;;;384.00;2329.60;;;;;;5077249;28;20032;-78
2021/11/05 06:11:46;;;;;;;10.57;6.30;;;384.00;2329.60;;;;;;5087768;28;20020;-77
2021/11/05 06:14:13;;;;;;;8.68;5.63;;;384.00;2329.60;;;;;;5105756;28;20499;-77
2021/11/05 06:16:40;;;;;;;11.25;6.13;;;384.00;2329.60;;;;;;5103169;28;20059;-77
2021/11/05 06:19:07;;;;;;;11.00;5.35;;;384.00;2329.60;;;;;;5101633;28;20094;-79
2021/11/05 06:21:34;;;;;;;9.60;6.00;;;384.00;2329.60;;;;;;5104059;28;20019;-78
2021/11/05 06:24:00;;;;;;;7.72;6.35;;;384.00;2329.60;;;;;;5081048;28;20032;-77
2021/11/05 06:26:26;;;;;;;11.38;7.05;;;384.00;2329.60;;;;;;5099751;28;20028;-77
2021/11/05 06:28:52;;;;;;;12.50;7.13;;;384.00;2329.60;;;;;;5103897;28;20032;-77
2021/11/05 06:31:17;;;;;;;11.68;7.15;;;384.00;2329.60;;;;;;5101044;28;20042;-77
2021/11/05 06:33:43;;;;;;;13.00;7.85;;;384.00;2329.60;;;;;;5092820;28;20027;-77
2021/11/05 06:36:09;;;;;;;11.05;7.57;;;384.00;2329.60;;;;;;5090429;28;20058;-78
2021/11/05 06:38:35;;;;;;;11.48;6.85;;;384.00;2329.60;;;;;;5083263;28;20031;-78
2021/11/05 06:41:01;;;;;;;11.68;8.02;;;384.00;2329.60;;;;;;5097317;28;20024;-76
2021/11/05 06:43:26;;;;;;;13.50;7.80;;;384.00;2329.60;;;;;;5076127;28;20039;-77
2021/11/05 06:45:52;;;;;;;10.43;7.43;;;384.00;2329.60;;;;;;5097167;28;20060;-77
2021/11/05 06:48:18;;;;;;;11.90;7.97;;;384.00;2329.60;;;;;;5093365;28;20356;-78
2021/11/05 06:50:44;;;;;;;15.57;9.55;;;359.30;2329.60;;;;;;5102800;28;20084;-77
2021/11/05 06:53:11;;;;;;;207.07;113.78;;;384.00;2329.60;;;;;;5083601;28;20055;-77
2021/11/05 06:55:37;;;;;;;88.10;54.90;;;384.00;2329.60;;;;;;5085171;28;20058;-77
2021/11/05 06:58:04;;;;;;;114.40;67.88;;;384.10;2329.60;;;;;;5087011;28;20055;-77
2021/11/05 07:00:31;;;;;;;20.75;12.45;;;384.10;2329.60;;;;;;5086626;28;20024;-77
2021/11/05 07:02:59;;;;;;;18.40;11.63;;;384.10;2329.60;;;;;;5085085;28;20031;-76
2021/11/05 07:05:26;;;;;;;16.95;10.95;;;384.10;2329.60;;;;;;5086023;28;20043;-78
2021/11/05 07:07:52;;;;;;;18.77;12.43;;;384.20;2329.60;;;;;;5103087;28;20058;-76
2021/11/05 07:10:18;;;;;;;22.08;12.18;;;384.20;2329.60;;;;;;5083791;28;20032;-77
2021/11/05 07:12:46;;;;;;;20.60;12.38;;;384.20;2329.60;;;;;;5103349;28;20024;-77
2021/11/05 07:15:13;;;;;;;19.58;12.93;;;384.20;2329.60;;;;;;5102467;28;20051;-77
2021/11/05 07:17:39;;;;;;;19.45;13.13;;;384.20;2329.60;;;;;;5102922;28;20028;-77
2021/11/05 07:20:07;;;;;;;19.65;13.93;;;384.30;2329.60;;;;;;5083346;28;20035;-78
2021/11/05 07:22:36;;;;;;;21.48;13.50;;;384.30;2329.60;;;;;;5086820;28;20027;-77
2021/11/05 07:25:02;;;;;;;26.40;15.63;;;384.40;2329.60;;;;;;5084123;28;20077;-77
2021/11/05 07:27:28;;;;;;;25.52;16.05;;;384.50;2329.60;;;;;;5088109;28;20025;-77
2021/11/05 07:29:54;;;;;;;27.05;16.55;;;384.50;2329.60;;;;;;5102897;28;20043;-78
2021/11/05 07:32:19;;;;;;;29.23;17.70;;;384.60;2329.60;;;;;;5093233;28;20051;-77
2021/11/05 07:34:48;;;;;;;25.40;15.82;;;384.60;2329.60;;;;;;5087896;28;20488;-77
2021/11/05 07:37:18;;;;;;;21.23;13.45;;;384.60;2329.60;;;;;;5113247;28;20020;-77
2021/11/05 07:39:44;;;;;;;20.90;12.25;;;384.60;2329.60;;;;;;5097258;28;20094;-77
2021/11/05 07:42:10;;;;;;;19.55;11.90;;;384.60;2329.60;;;;;;5115331;28;20058;-77
2021/11/05 07:44:37;;;;;;;17.50;12.18;;;384.50;2329.60;;;;;;5110898;28;20027;-77
2021/11/05 07:47:04;;;;;;;14.95;10.13;;;384.60;2329.60;;;;;;5084110;28;20442;-77
2021/11/05 07:49:30;;;;;;;15.55;11.25;;;384.60;2329.60;;;;;;5079851;28;20555;-76
2021/11/05 07:51:55;;;;;;;14.88;10.57;;;384.70;2329.60;;;;;;5089013;28;20055;-77
2021/11/05 07:54:22;;;;;;;16.30;11.63;;;384.70;2329.60;;;;;;5103776;28;20078;-77
2021/11/05 07:56:48;;;;;;;15.70;11.35;;;384.70;2329.60;;;;;;5084662;28;20099;-76
2021/11/05 07:59:15;;;;;;;16.58;11.07;;;384.80;2329.60;;;;;;5084795;28;20082;-77
2021/11/05 08:01:41;;;;;;;14.48;9.70;;;384.70;2329.60;;;;;;5089406;28;20073;-76
2021/11/05 08:04:07;;;;;;;15.82;10.48;;;384.60;2329.60;;;;;;5105834;28;20118;-76
2021/11/05 08:06:33;;;;;;;14.02;11.10;;;384.50;2329.60;;;;;;5084504;28;20539;-76
2021/11/05 08:08:59;;;;;;;15.18;11.13;;;384.40;2329.60;;;;;;5103898;28;20035;-76
2021/11/05 08:11:26;;;;;;;15.15;11.43;;;384.40;2329.60;;;;;;5106100;28;20023;-76
2021/11/05 08:13:52;;;;;;;21.15;12.25;;;384.40;2329.60;;;;;;5087319;28;20028;-76
2021/11/05 08:16:18;;;;;;;15.50;11.07;;;384.40;2329.60;;;;;;5090408;28;20046;-76
2021/11/05 08:18:45;;;;;;;19.38;13.88;;;384.30;2329.60;;;;;;5094182;28;20094;-77
2021/11/05 08:21:11;;;;;;;18.77;13.75;;;384.20;2329.60;;;;;;5093309;28;20035;-76
2021/11/05 08:23:37;;;;;;;18.83;13.38;;;384.20;2329.60;;;;;;5094346;28;20468;-77
2021/11/05 08:26:05;;;;;;;19.75;13.82;;;384.10;2329.60;;;;;;5092602;28;20059;-76
2021/11/05 08:28:32;;;;;;;19.25;14.07;;;384.10;2329.60;;;;;;5093749;28;20602;-76
2021/11/05 08:30:58;;;;;;;21.90;13.93;;;384.00;2329.60;;;;;;5086938;28;20012;-76
2021/11/05 08:33:24;;;;;;;19.80;14.82;;;359.30;2329.60;;;;;;5092323;28;20020;-76
2021/11/05 08:35:51;;;;;;;17.63;13.02;;;359.20;2329.60;;;;;;5091842;28;20028;-76
2021/11/05 08:38:19;;;;;;;22.83;15.88;;;359.10;2329.60;;;;;;5094345;28;20027;-76
2021/11/05 08:40:48;;;;;;;15.65;11.32;;;359.00;2329.60;;;;;;5093780;28;20016;-77
2021/11/05 08:43:17;;;;;;;16.85;12.55;;;358.80;2329.60;;;;;;5094025;28;20541;-76
2021/11/05 08:45:43;;;;;;;16.73;12.68;;;358.70;2329.60;;;;;;5092392;28;20043;-76
2021/11/05 08:48:09;;;;;;;21.50;13.68;;;358.60;2329.60;;;;;;5082995;28;20032;-76
2021/11/05 08:50:35;;;;;;;19.10;13.68;;;358.50;2329.60;;;;;;5082931;28;20488;-77
2021/11/05 08:53:03;;;;;;;14.57;11.15;;;358.40;2329.60;;;;;;5082993;28;20851;-77
2021/11/05 08:55:29;;;;;;;18.45;12.35;;;358.40;2329.60;;;;;;5085226;28;20492;-76
2021/11/05 08:57:54;;;;;;;15.88;11.57;;;333.70;2329.60;;;;;;5082112;28;20162;-76
2021/11/05 09:00:23;;;;;;;13.50;10.02;;;333.60;2329.60;;;;;;5080165;28;20023;-77
2021/11/05 09:02:49;;;;;;;13.85;11.10;;;333.60;2329.60;;;;;;5082403;28;20035;-77
2021/11/05 09:05:17;;;;;;;16.42;10.77;;;333.60;2329.60;;;;;;5081520;28;20476;-78
2021/11/05 09:07:43;;;;;;;12.65;9.77;;;333.10;2329.60;;;;;;5082902;28;20028;-77
2021/11/05 09:10:10;;;;;;;14.90;11.45;;;333.40;2329.60;;;;;;5081223;28;20021;-76
2021/11/05 09:12:38;;;;;;;19.65;11.45;;;333.50;2329.60;;;;;;5082203;28;20034;-77
2021/11/05 09:15:06;;;;;;;17.50;11.27;;;333.50;2329.60;;;;;;5086644;28;20068;-77
2021/11/05 09:17:32;;;;;;;14.00;10.25;;;333.40;2329.60;;;;;;5103391;28;20059;-77
2021/11/05 09:19:58;;;;;;;15.35;11.50;;;333.40;2329.60;;;;;;5085500;28;20024;-77
2021/11/05 09:22:24;;;;;;;16.23;11.55;;;333.30;2329.60;;;;;;5080495;28;20432;-76
2021/11/05 09:24:50;;;;;;;15.35;10.30;;;333.30;2329.60;;;;;;5083989;28;20115;-77
2021/11/05 09:27:17;;;;;;;11.05;8.27;;;333.20;2329.60;;;;;;5086533;28;20090;-77
2021/11/05 09:29:42;;;;;;;10.93;7.70;;;333.10;2329.60;;;;;;5104371;28;20077;-76
2021/11/05 09:32:09;;;;;;;12.70;8.00;;;333.00;2329.60;;;;;;5088865;28;20019;-76
2021/11/05 09:34:34;;;;;;;11.63;7.90;;;333.00;2329.60;;;;;;5102935;28;20031;-77
2021/11/05 09:37:03;;;;;;;12.32;8.43;;;333.00;2329.60;;;;;;5082552;28;20103;-77
2021/11/05 09:39:30;;;;;;;11.98;8.77;;;332.90;2329.60;;;;;;5104359;28;20816;-77
2021/11/05 09:41:58;;;;;;;13.77;7.88;;;332.90;2329.60;;;;;;5084531;28;20027;-78
2021/11/05 09:44:24;;;;;;;12.43;8.00;;;332.80;2329.60;;;;;;5088052;28;20062;-78
2021/11/05 09:46:50;;;;;;;10.70;7.40;;;308.10;2304.00;;;;;;5101788;28;20024;-77
2021/11/05 09:49:16;;;;;;;9.10;7.32;;;308.10;2304.00;;;;;;5104436;28;20032;-77
2021/11/05 09:51:42;;;;;;;10.88;8.77;;;308.00;2304.00;;;;;;5087523;28;20039;-77
2021/11/05 09:54:10;;;;;;;9.98;7.80;;;307.90;2304.00;;;;;;5087264;28;20427;-78
2021/11/05 09:56:36;;;;;;;12.77;9.30;;;307.90;2304.00;;;;;;5102058;28;20095;-81
2021/11/05 09:59:02;;;;;;;11.70;8.93;;;307.80;2304.00;;;;;;5088833;28;20019;-77
2021/11/05 10:01:28;;;;;;;10.02;7.50;;;307.80;2304.00;;;;;;5085392;28;20114;-77
2021/11/05 10:03:53;;;;;;;8.68;6.75;;;307.70;2304.00;;;;;;5087167;28;20898;-77
2021/11/05 10:06:23;;;;;;;10.90;8.23;;;307.70;2304.00;;;;;;5111713;28;20118;-77
2021/11/05 10:08:53;;;;;;;8.95;7.03;;;307.70;2304.00;;;;;;5110673;28;20380;-77
2021/11/05 10:11:27;;;;;;;9.77;7.65;;;307.70;2304.00;;;;;;5094663;28;20401;-76
2021/11/05 10:13:54;;;;;;;13.15;8.30;;;307.70;2304.00;;;;;;5094660;28;20020;-76
2021/11/05 10:16:23;;;;;;;9.85;7.82;;;307.70;2304.00;;;;;;5097146;28;20523;-76
2021/11/05 10:19:08;;;;;;;10.63;8.63;;;307.70;2304.00;;;;;;5091361;28;20024;-76
2021/11/05 10:21:45;;;;;;;10.30;8.05;;;307.70;2304.00;;;;;;5085949;28;20489;-76
2021/11/05 10:24:17;;;;;;;10.32;7.20;;;307.70;2304.00;;;;;;5086022;28;20036;-75
2021/11/05 10:26:49;;;;;;;10.52;7.55;;;307.70;2304.00;;;;;;5084242;28;20058;-76
2021/11/05 10:29:30;;;;;;;9.30;7.70;;;307.60;2304.00;;;;;;5078599;28;20649;-77
2021/11/05 10:32:07;;;;;;;11.57;7.95;;;307.60;2304.00;;;;;;5085147;28;20032;-75
2021/11/05 10:34:54;;;;;;;9.00;7.15;;;307.60;2304.00;;;;;;5079897;28;20020;-76
2021/11/05 10:37:32;;;;;;;10.13;7.35;;;307.70;2304.00;;;;;;5079273;28;20490;-76
2021/11/05 10:39:59;;;;;;;11.57;8.80;;;307.60;2304.00;;;;;;5084358;28;20027;-76
2021/11/05 10:42:36;;;;;;;11.77;8.00;;;307.70;2304.00;;;;;;5081664;28;20082;-76
2021/11/05 10:45:21;;;;;;;16.08;7.22;;;307.70;2304.00;;;;;;5081750;28;20127;-77
2021/11/05 10:47:53;;;;;;;8.27;6.28;;;307.60;2304.00;;;;;;5078669;28;20044;-81
2021/11/05 10:50:26;;;;;;;7.80;5.82;;;307.50;2304.00;;;;;;5078734;28;20037;-81
2021/11/05 10:53:13;;;;;;;7.72;5.82;;;307.40;2304.00;;;;;;5083141;28;20558;-82
2021/11/05 10:55:42;;;;;;;9.77;5.90;;;307.40;2304.00;;;;;;5078246;28;20031;-81
2021/11/05 10:58:13;;;;;;;8.00;6.22;;;307.40;2304.00;;;;;;5084648;28;20033;-81
2021/11/05 11:00:40;;;;;;;10.05;6.28;;;307.50;2304.00;;;;;;5083974;28;20020;-82
2021/11/05 11:03:26;;;;;;;8.95;6.85;;;307.50;2304.00;;;;;;5082556;28;20036;-82
2021/11/05 11:05:54;;;;;;;9.68;7.18;;;307.50;2304.00;;;;;;5089213;28;20037;-82
2021/11/05 11:08:22;;;;;;;10.05;6.97;;;307.30;2304.00;;;;;;5077693;28;20032;-82
2021/11/05 11:10:50;;;;;;;12.38;6.57;;;307.60;2304.00;;;;;;5087304;28;20032;-81
2021/11/05 11:13:33;;;;;;;7.47;6.03;;;307.50;2304.00;;;;;;5085495;28;20027;-81
2021/11/05 11:15:59;;;;;;;6.82;5.30;;;307.60;2304.00;;;;;;5101085;28;20036;-80
2021/11/05 11:18:25;;;;;;;8.18;6.38;;;307.60;2304.00;;;;;;5102535;28;20031;-81
2021/11/05 11:20:51;;;;;;;10.57;7.43;;;307.60;2304.00;;;;;;5083631;28;20020;-81
2021/11/05 11:23:17;;;;;;;9.77;7.00;;;307.50;2304.00;;;;;;5074581;28;20028;-81
2021/11/05 11:25:43;;;;;;;8.77;6.68;;;307.50;2304.00;;;;;;5074582;28;20485;-81
2021/11/05 11:28:10;;;;;;;11.75;7.03;;;307.60;2304.00;;;;;;5071971;28;20038;-81
2021/11/05 11:30:36;;;;;;;7.88;6.28;;;307.70;2304.00;;;;;;5086113;28;20040;-81
2021/11/05 11:33:02;;;;;;;11.13;6.50;;;307.60;2304.00;;;;;;5100786;28;20033;-81
2021/11/05 11:35:28;;;;;;;11.60;8.80;;;307.60;2304.00;;;;;;5084213;28;20076;-81
2021/11/05 11:37:57;;;;;;;8.77;6.22;;;307.70;2304.00;;;;;;5068927;28;20020;-81
2021/11/05 11:40:22;;;;;;;12.32;7.50;;;307.70;2304.00;;;;;;5077252;28;20041;-81
2021/11/05 11:42:49;;;;;;;10.05;7.65;;;307.60;2304.00;;;;;;5081236;28;20476;-81
2021/11/05 11:45:16;;;;;;;9.18;7.13;;;307.60;2304.00;;;;;;5086673;28;20024;-82
2021/11/05 11:47:48;;;;;;;15.60;8.75;;;307.70;2304.00;;;;;;5067828;28;20396;-83
2021/11/05 11:50:27;;;;;;;12.88;9.32;;;307.70;2304.00;;;;;;5071045;28;20120;-82
2021/11/05 11:53:11;;;;;;;12.38;9.15;;;307.70;2304.00;;;;;;5068265;28;20105;-82
2021/11/05 11:55:39;;;;;;;12.80;9.85;;;307.70;2304.00;;;;;;5082764;28;20039;-82
2021/11/05 11:58:11;;;;;;;13.30;9.93;;;307.70;2304.00;;;;;;5067244;28;20031;-82
2021/11/05 12:00:38;;;;;;;10.32;8.65;;;307.70;2304.00;;;;;;5080361;28;20029;-82
2021/11/05 12:03:07;;;;;;;11.35;7.93;;;307.50;2304.00;;;;;;5080649;28;20044;-82
2021/11/05 12:05:33;;;;;;;9.93;8.15;;;307.50;2304.00;;;;;;5078972;28;20502;-81